createdAt,value
2022-12-18T00:00:00.759Z,102756.56
2022-12-18T00:02:27.991Z,102764.75
2022-12-18T00:04:55.410Z,102760.47
2022-12-18T00:07:22.625Z,102755.59
2022-12-18T00:09:50.092Z,102766.34
2022-12-18T00:14:45.710Z,102764.81
2022-12-18T00:17:12.926Z,102763.72
2022-12-18T00:19:40.223Z,102769.56
2022-12-18T00:22:07.589Z,102771.31
2022-12-18T00:24:34.803Z,102782.59
2022-12-18T00:27:02.008Z,102788.78
2022-12-18T00:29:29.384Z,102780.81
2022-12-18T00:31:56.610Z,102782.94
2022-12-18T00:34:23.847Z,102789.28
2022-12-18T00:36:53.077Z,102789.47
2022-12-18T00:39:20.389Z,102796.97
2022-12-18T00:42:06.128Z,102798.78
2022-12-18T00:44:33.444Z,102796.44
2022-12-18T00:47:00.660Z,102795.22
2022-12-18T00:49:28.059Z,102806.81
2022-12-18T00:51:55.897Z,102801.22
2022-12-18T00:54:23.289Z,102797.28
2022-12-18T00:56:51.024Z,102794.47
2022-12-18T00:59:18.833Z,102796.91
2022-12-18T01:01:46.508Z,102801.84
2022-12-18T01:04:14.484Z,102803.06
2022-12-18T01:06:41.746Z,102803.28
2022-12-18T01:09:09.015Z,102797.44
2022-12-18T01:11:37.603Z,102814.03
2022-12-18T01:14:05.216Z,102813.09
2022-12-18T01:16:34.643Z,102818.56
2022-12-18T01:19:02.130Z,102813.19
2022-12-18T01:21:29.339Z,102813.72
2022-12-18T01:23:57.445Z,102811.75
2022-12-18T01:26:25.695Z,102812.84
2022-12-18T01:28:53.060Z,102808.13
2022-12-18T01:31:22.695Z,102808.59
2022-12-18T01:33:50.351Z,102803.75
2022-12-18T01:36:21.981Z,102808.22
2022-12-18T01:38:49.731Z,102812.97
2022-12-18T01:41:18.202Z,102810.00
2022-12-18T01:43:58.992Z,102813.97
2022-12-18T01:46:27.812Z,102815.16
2022-12-18T01:49:01.283Z,102807.78
2022-12-18T01:51:30.661Z,102811.41
2022-12-18T01:53:58.915Z,102799.69
2022-12-18T01:56:26.323Z,102802.84
2022-12-18T01:59:03.347Z,102798.50
2022-12-18T02:01:31.892Z,102805.97
2022-12-18T02:04:22.116Z,102807.22
2022-12-18T02:06:52.376Z,102805.50
2022-12-18T02:09:22.281Z,102808.28
2022-12-18T02:11:52.890Z,102803.13
2022-12-18T02:14:36.322Z,102800.25
2022-12-18T02:17:10.577Z,102802.38
2022-12-18T02:19:46.701Z,102811.13
2022-12-18T02:22:40.480Z,102807.00
2022-12-18T02:25:07.700Z,102810.22
2022-12-18T02:27:36.660Z,102810.53
2022-12-18T02:30:05.653Z,102810.44
2022-12-18T02:32:35.786Z,102813.25
2022-12-18T02:35:04.370Z,102809.53
2022-12-18T02:37:33.530Z,102816.13
2022-12-18T02:40:04.909Z,102812.41
2022-12-18T02:42:33.810Z,102821.66
2022-12-18T02:45:02.414Z,102818.00
2022-12-18T02:47:35.175Z,102809.72
2022-12-18T02:50:21.154Z,102814.38
2022-12-18T02:53:09.239Z,102807.22
2022-12-18T02:55:55.906Z,102814.03
2022-12-18T02:58:42.490Z,102815.94
2022-12-18T03:01:20.871Z,102820.00
2022-12-18T03:04:00.671Z,102821.53
2022-12-18T03:06:31.117Z,102818.81
2022-12-18T03:09:03.381Z,102816.72
2022-12-18T03:11:52.488Z,102818.34
2022-12-18T03:14:21.116Z,102816.25
2022-12-18T03:16:52.092Z,102823.38
2022-12-18T03:19:22.782Z,102827.16
2022-12-18T03:21:54.320Z,102811.19
2022-12-18T03:24:22.630Z,102820.75
2022-12-18T03:26:53.535Z,102819.41
2022-12-18T03:29:37.011Z,102809.31
2022-12-18T03:32:08.945Z,102823.19
2022-12-18T03:34:39.639Z,102819.75
2022-12-18T03:37:08.175Z,102818.81
2022-12-18T03:39:36.913Z,102827.72
2022-12-18T03:42:18.977Z,102826.91
2022-12-18T03:44:59.779Z,102820.66
2022-12-18T03:47:36.646Z,102827.91
2022-12-18T03:50:15.864Z,102830.03
2022-12-18T03:53:17.017Z,102833.41
2022-12-18T03:55:46.563Z,102844.31
2022-12-18T03:58:17.523Z,102845.84
2022-12-18T04:00:56.364Z,102832.19
2022-12-18T04:03:26.640Z,102833.41
2022-12-18T04:05:55.651Z,102837.81
2022-12-18T04:08:24.336Z,102841.09
2022-12-18T04:11:01.671Z,102852.22
2022-12-18T04:13:30.856Z,102843.97
2022-12-18T04:16:00.400Z,102845.13
2022-12-18T04:18:28.468Z,102849.72
2022-12-18T04:20:56.393Z,102842.13
2022-12-18T04:23:23.884Z,102847.16
2022-12-18T04:25:51.384Z,102852.09
2022-12-18T04:28:28.795Z,102849.97
2022-12-18T04:30:56.314Z,102851.97
2022-12-18T04:33:23.591Z,102850.22
2022-12-18T04:35:51.838Z,102851.88
2022-12-18T04:38:19.171Z,102844.59
2022-12-18T04:40:50.708Z,102850.13
2022-12-18T04:43:25.810Z,102854.38
2022-12-18T04:45:53.189Z,102855.84
2022-12-18T04:48:21.307Z,102848.06
2022-12-18T04:50:49.309Z,102847.94
2022-12-18T04:53:16.460Z,102854.00
2022-12-18T04:55:43.773Z,102857.81
2022-12-18T04:58:11.030Z,102870.25
2022-12-18T05:00:38.356Z,102864.69
2022-12-18T05:03:05.753Z,102863.53
2022-12-18T05:05:35.393Z,102864.13
2022-12-18T05:08:02.720Z,102869.81
2022-12-18T05:10:37.574Z,102868.59
2022-12-18T05:13:05.559Z,102867.31
2022-12-18T05:15:33.451Z,102870.75
2022-12-18T05:18:01.600Z,102877.38
2022-12-18T05:20:28.868Z,102869.03
2022-12-18T05:22:56.912Z,102877.38
2022-12-18T05:25:24.428Z,102876.78
2022-12-18T05:27:51.769Z,102866.28
2022-12-18T05:30:18.999Z,102870.22
2022-12-18T05:32:46.300Z,102872.78
2022-12-18T05:35:13.669Z,102869.91
2022-12-18T05:37:43.319Z,102867.59
2022-12-18T05:40:11.543Z,102876.19
2022-12-18T05:42:39.071Z,102873.53
2022-12-18T05:45:06.698Z,102870.88
2022-12-18T05:47:34.054Z,102878.06
2022-12-18T05:50:01.448Z,102877.25
2022-12-18T05:52:28.713Z,102881.47
2022-12-18T05:54:56.063Z,102885.78
2022-12-18T05:57:23.434Z,102886.97
2022-12-18T05:59:50.676Z,102880.31
2022-12-18T06:02:17.937Z,102876.78
2022-12-18T06:04:45.659Z,102870.22
2022-12-18T06:07:12.860Z,102878.00
2022-12-18T06:09:40.119Z,102884.56
2022-12-18T06:12:07.503Z,102886.75
2022-12-18T06:14:34.853Z,102893.38
2022-12-18T06:17:02.058Z,102890.78
2022-12-18T06:19:29.419Z,102892.81
2022-12-18T06:21:58.826Z,102888.28
2022-12-18T06:24:26.181Z,102891.19
2022-12-18T06:26:53.402Z,102897.06
2022-12-18T06:29:20.779Z,102902.94
2022-12-18T06:31:48.123Z,102913.56
2022-12-18T06:34:15.579Z,102915.81
2022-12-18T06:36:42.819Z,102916.75
2022-12-18T06:39:10.072Z,102913.47
2022-12-18T06:41:37.473Z,102924.69
2022-12-18T06:44:04.903Z,102930.56
2022-12-18T06:46:33.281Z,102924.13
2022-12-18T06:49:00.698Z,102924.34
2022-12-18T06:51:27.941Z,102926.59
2022-12-18T06:53:55.191Z,102921.31
2022-12-18T06:56:22.656Z,102936.38
2022-12-18T06:58:53.192Z,102938.56
2022-12-18T07:01:20.775Z,102941.63
2022-12-18T07:03:52.469Z,102945.38
2022-12-18T07:06:21.182Z,102947.25
2022-12-18T07:08:48.891Z,102941.16
2022-12-18T07:11:17.341Z,102953.66
2022-12-18T07:13:44.694Z,102948.75
2022-12-18T07:16:18.438Z,102961.88
2022-12-18T07:18:49.775Z,102971.56
2022-12-18T07:21:18.017Z,102957.69
2022-12-18T07:23:47.368Z,102969.91
2022-12-18T07:26:15.232Z,102962.06
2022-12-18T07:28:43.258Z,102973.81
2022-12-18T07:31:12.218Z,102975.97
2022-12-18T07:33:40.208Z,102970.91
2022-12-18T07:36:08.830Z,102973.00
2022-12-18T07:38:36.530Z,102976.84
2022-12-18T07:41:04.927Z,102986.66
2022-12-18T07:43:34.341Z,102985.31
2022-12-18T07:46:01.611Z,102977.28
2022-12-18T07:48:29.328Z,102983.00
2022-12-18T07:51:06.616Z,102981.00
2022-12-18T07:53:35.355Z,102976.56
2022-12-18T07:58:51.643Z,102988.09
2022-12-18T08:01:19.143Z,102982.53
2022-12-18T08:03:46.525Z,102988.63
2022-12-18T08:06:15.535Z,102985.84
2022-12-18T08:08:43.315Z,102987.50
2022-12-18T08:11:10.503Z,102992.38
2022-12-18T08:13:38.168Z,102990.13
2022-12-18T08:16:07.018Z,102994.34
2022-12-18T08:18:34.774Z,102993.25
2022-12-18T08:21:09.313Z,102998.63
2022-12-18T08:23:42.305Z,102993.56
2022-12-18T08:26:11.607Z,102999.31
2022-12-18T08:28:39.159Z,102997.88
2022-12-18T08:31:07.107Z,103011.25
2022-12-18T08:33:34.599Z,103005.88
2022-12-18T08:36:02.776Z,103011.66
2022-12-18T08:38:29.975Z,103016.00
2022-12-18T08:41:04.527Z,103005.41
2022-12-18T08:43:50.136Z,103021.09
2022-12-18T08:46:18.123Z,103004.63
2022-12-18T08:48:45.483Z,103027.03
2022-12-18T08:51:13.103Z,103021.41
2022-12-18T08:53:40.850Z,103022.75
2022-12-18T08:56:08.740Z,103016.91
2022-12-18T08:58:35.990Z,103017.56
2022-12-18T09:01:04.564Z,103015.84
2022-12-18T09:03:34.139Z,103010.31
2022-12-18T09:06:01.417Z,103022.09
2022-12-18T09:08:29.311Z,103015.53
2022-12-18T09:10:57.040Z,103000.38
2022-12-18T09:13:24.405Z,103003.59
2022-12-18T09:15:52.985Z,103008.69
2022-12-18T09:18:20.814Z,103000.16
2022-12-18T09:20:48.426Z,103002.09
2022-12-18T09:23:15.871Z,103006.09
2022-12-18T09:25:43.182Z,102997.38
2022-12-18T09:28:20.060Z,102995.22
2022-12-18T09:30:49.893Z,103009.47
2022-12-18T09:33:17.735Z,103009.16
2022-12-18T09:35:46.024Z,102995.22
2022-12-18T09:38:15.154Z,102989.94
2022-12-18T09:40:48.438Z,102998.78
2022-12-18T09:43:24.756Z,103010.44
2022-12-18T09:45:58.331Z,103011.25
2022-12-18T09:48:33.318Z,103005.78
2022-12-18T09:51:04.905Z,103012.59
2022-12-18T09:53:35.980Z,103014.25
2022-12-18T09:56:04.895Z,103007.56
2022-12-18T09:58:43.321Z,103006.22
2022-12-18T10:01:11.552Z,103027.75
2022-12-18T10:03:38.772Z,103017.53
2022-12-18T10:06:15.165Z,103007.84
2022-12-18T10:09:01.196Z,103009.91
2022-12-18T10:11:42.627Z,103006.44
2022-12-18T10:14:25.288Z,103014.88
2022-12-18T10:17:10.787Z,103000.47
2022-12-18T10:19:50.412Z,102997.75
2022-12-18T10:22:21.247Z,102996.09
2022-12-18T10:25:00.728Z,103004.31
2022-12-18T10:27:28.387Z,102999.84
2022-12-18T10:29:55.747Z,103004.16
2022-12-18T10:32:25.939Z,103011.47
2022-12-18T10:35:00.190Z,103015.56
2022-12-18T10:37:30.215Z,103019.53
2022-12-18T10:40:21.571Z,103023.47
2022-12-18T10:43:04.250Z,103030.88
2022-12-18T10:45:31.760Z,103026.16
2022-12-18T10:47:59.652Z,103023.03
2022-12-18T10:51:08.688Z,103033.63
2022-12-18T10:53:23.720Z,103023.97
2022-12-18T10:55:52.891Z,103012.78
2022-12-18T10:58:26.625Z,103015.41
2022-12-18T11:01:13.042Z,103012.47
2022-12-18T11:03:42.212Z,103014.25
2022-12-18T11:06:11.759Z,103019.00
2022-12-18T11:08:39.789Z,103035.78
2022-12-18T11:11:23.174Z,103038.31
2022-12-18T11:13:53.794Z,103040.13
2022-12-18T11:16:21.395Z,103032.03
2022-12-18T11:18:48.758Z,103043.91
2022-12-18T11:21:16.067Z,103055.47
2022-12-18T11:23:53.306Z,103041.38
2022-12-18T11:26:21.630Z,103040.50
2022-12-18T11:28:48.803Z,103040.09
2022-12-18T11:31:16.131Z,103048.72
2022-12-18T11:34:04.909Z,103049.88
2022-12-18T11:36:39.315Z,103038.88
2022-12-18T11:39:25.571Z,103040.66
2022-12-18T11:42:18.874Z,103057.34
2022-12-18T11:44:49.310Z,103045.38
2022-12-18T11:47:35.613Z,103054.06
2022-12-18T11:50:04.238Z,103033.31
2022-12-18T11:52:38.356Z,103047.25
2022-12-18T11:55:11.692Z,103040.56
2022-12-18T11:57:56.279Z,103045.63
2022-12-18T12:00:24.229Z,103051.84
2022-12-18T12:03:10.034Z,103044.50
2022-12-18T12:05:46.773Z,103039.19
2022-12-18T12:08:20.030Z,103049.97
2022-12-18T12:10:50.090Z,103058.72
2022-12-18T12:13:35.614Z,103068.50
2022-12-18T12:16:17.320Z,103055.25
2022-12-18T12:18:44.550Z,103072.22
2022-12-18T12:21:27.154Z,103072.03
2022-12-18T12:24:32.852Z,103069.69
2022-12-18T12:27:06.246Z,103078.78
2022-12-18T12:29:37.302Z,103068.41
2022-12-18T12:32:09.574Z,103066.91
2022-12-18T12:35:00.835Z,103075.94
2022-12-18T12:37:48.801Z,103069.41
2022-12-18T12:40:50.272Z,103074.81
2022-12-18T12:43:26.825Z,103081.53
2022-12-18T12:46:15.367Z,103079.25
2022-12-18T12:48:54.524Z,103088.25
2022-12-18T12:51:42.123Z,103073.28
2022-12-18T12:54:18.707Z,103074.09
2022-12-18T12:56:59.483Z,103071.28
2022-12-18T12:59:32.738Z,103081.34
2022-12-18T13:02:19.257Z,103074.78
2022-12-18T13:04:55.518Z,103069.09
2022-12-18T13:07:32.868Z,103075.78
2022-12-18T13:10:19.021Z,103078.28
2022-12-18T13:13:11.046Z,103086.19
2022-12-18T13:15:48.615Z,103084.72
2022-12-18T13:18:20.988Z,103084.84
2022-12-18T13:23:50.358Z,103081.34
2022-12-18T13:26:19.125Z,103085.81
2022-12-18T13:28:54.934Z,103075.91
2022-12-18T13:31:40.835Z,103081.72
2022-12-18T13:34:28.326Z,103082.41
2022-12-18T13:36:57.038Z,103085.38
2022-12-18T13:39:32.751Z,103082.41
2022-12-18T13:42:08.661Z,103086.22
2022-12-18T13:44:40.977Z,103067.19
2022-12-18T13:47:29.292Z,103085.63
2022-12-18T13:49:57.436Z,103094.03
2022-12-18T13:52:36.346Z,103084.34
2022-12-18T13:55:08.337Z,103088.00
2022-12-18T13:57:39.484Z,103090.69
2022-12-18T14:00:25.357Z,103082.13
2022-12-18T14:02:53.189Z,103088.59
2022-12-18T14:05:23.607Z,103093.91
2022-12-18T14:07:51.891Z,103095.41
2022-12-18T14:10:50.420Z,103105.81
2022-12-18T14:13:09.490Z,103111.97
2022-12-18T14:15:43.109Z,103114.28
2022-12-18T14:18:10.438Z,103113.72
2022-12-18T14:20:44.456Z,103112.94
2022-12-18T14:23:32.527Z,103107.97
2022-12-18T14:26:05.433Z,103104.25
2022-12-18T14:28:33.283Z,103112.47
2022-12-18T14:31:00.663Z,103106.25
2022-12-18T14:33:28.504Z,103108.53
2022-12-18T14:36:00.129Z,103107.66
2022-12-18T14:38:28.920Z,103112.47
2022-12-18T14:41:00.379Z,103118.66
2022-12-18T14:43:28.715Z,103102.28
2022-12-18T14:45:56.946Z,103125.50
2022-12-18T14:48:35.887Z,103112.03
2022-12-18T14:51:05.027Z,103113.13
2022-12-18T14:53:40.542Z,103106.28
2022-12-18T14:56:19.639Z,103106.50
2022-12-18T14:58:48.595Z,103114.75
2022-12-18T15:01:19.746Z,103099.16
2022-12-18T15:03:47.265Z,103100.03
2022-12-18T15:06:19.101Z,103113.91
2022-12-18T15:08:46.417Z,103100.16
2022-12-18T15:11:30.862Z,103100.63
2022-12-18T15:13:58.839Z,103095.09
2022-12-18T15:16:26.404Z,103100.81
2022-12-18T15:18:54.367Z,103096.03
2022-12-18T15:21:22.148Z,103103.00
2022-12-18T15:23:53.319Z,103109.94
2022-12-18T15:26:21.977Z,103111.81
2022-12-18T15:28:51.067Z,103107.28
2022-12-18T15:31:18.469Z,103111.91
2022-12-18T15:33:54.816Z,103088.91
2022-12-18T15:36:26.144Z,103085.53
2022-12-18T15:38:55.446Z,103082.88
2022-12-18T15:41:31.797Z,103087.03
2022-12-18T15:43:59.082Z,103079.03
2022-12-18T15:46:27.766Z,103085.47
2022-12-18T15:49:01.405Z,103072.41
2022-12-18T15:51:29.325Z,103077.13
2022-12-18T15:53:57.909Z,103075.50
2022-12-18T15:56:43.800Z,103068.78
2022-12-18T15:59:15.651Z,103081.13
2022-12-18T16:01:44.651Z,103079.88
2022-12-18T16:04:12.988Z,103070.34
2022-12-18T16:07:05.677Z,103076.25
2022-12-18T16:09:27.966Z,103089.16
2022-12-18T16:11:55.161Z,103096.13
2022-12-18T16:14:23.364Z,103082.59
2022-12-18T16:16:52.810Z,103082.16
2022-12-18T16:19:20.505Z,103097.81
2022-12-18T16:21:48.430Z,103093.19
2022-12-18T16:24:19.812Z,103101.28
2022-12-18T16:26:47.147Z,103100.34
2022-12-18T16:29:14.355Z,103103.09
2022-12-18T16:31:42.088Z,103090.13
2022-12-18T16:34:13.262Z,103089.94
2022-12-18T16:36:41.809Z,103093.25
2022-12-18T16:39:10.172Z,103084.56
2022-12-18T16:41:37.851Z,103079.91
2022-12-18T16:44:05.101Z,103089.16
2022-12-18T16:46:32.790Z,103092.13
2022-12-18T16:49:00.539Z,103100.72
2022-12-18T16:51:28.676Z,103098.28
2022-12-18T16:53:56.824Z,103101.81
2022-12-18T16:56:24.162Z,103081.69
2022-12-18T16:58:55.194Z,103103.53
2022-12-18T17:01:23.121Z,103111.50
2022-12-18T17:03:54.499Z,103109.75
2022-12-18T17:06:22.555Z,103113.53
2022-12-18T17:08:55.080Z,103116.88
2022-12-18T17:11:22.537Z,103113.78
2022-12-18T17:13:50.680Z,103125.81
2022-12-18T17:16:18.566Z,103118.00
2022-12-18T17:18:45.908Z,103123.44
2022-12-18T17:21:14.640Z,103138.78
2022-12-18T17:23:43.958Z,103146.91
2022-12-18T17:26:12.328Z,103138.16
2022-12-18T17:28:40.340Z,103137.06
2022-12-18T17:31:14.987Z,103125.72
2022-12-18T17:33:42.913Z,103119.41
2022-12-18T17:36:10.909Z,103119.34
2022-12-18T17:38:38.968Z,103113.97
2022-12-18T17:41:09.859Z,103121.25
2022-12-18T17:43:37.228Z,103104.78
2022-12-18T17:46:05.800Z,103113.47
2022-12-18T17:48:35.155Z,103111.94
2022-12-18T17:51:03.524Z,103104.03
2022-12-18T17:53:32.231Z,103107.34
2022-12-18T17:56:05.729Z,103094.81
2022-12-18T17:58:34.360Z,103093.56
2022-12-18T18:01:01.994Z,103101.34
2022-12-18T18:03:29.351Z,103083.78
2022-12-18T18:05:57.594Z,103089.47
2022-12-18T18:08:25.570Z,103090.88
2022-12-18T18:10:52.858Z,103100.50
2022-12-18T18:13:46.477Z,103104.50
2022-12-18T18:16:14.458Z,103092.72
2022-12-18T18:18:41.755Z,103102.47
2022-12-18T18:21:09.162Z,103104.94
2022-12-18T18:23:36.317Z,103106.50
2022-12-18T18:26:06.632Z,103113.03
2022-12-18T18:28:34.324Z,103106.41
2022-12-18T18:31:09.294Z,103101.16
2022-12-18T18:33:38.265Z,103109.41
2022-12-18T18:36:09.502Z,103113.66
2022-12-18T18:38:36.761Z,103110.13
2022-12-18T18:41:04.792Z,103115.44
2022-12-18T18:43:32.519Z,103117.09
2022-12-18T18:46:01.460Z,103116.56
2022-12-18T18:48:31.115Z,103120.41
2022-12-18T18:51:00.677Z,103118.03
2022-12-18T18:53:28.629Z,103115.66
2022-12-18T18:56:37.478Z,103115.44
2022-12-18T18:58:46.913Z,103121.69
2022-12-18T19:01:15.322Z,103124.03
2022-12-18T19:03:43.483Z,103125.19
2022-12-18T19:06:21.209Z,103114.19
2022-12-18T19:08:48.881Z,103116.88
2022-12-18T19:11:36.668Z,103116.88
2022-12-18T19:14:05.806Z,103099.00
2022-12-18T19:16:33.784Z,103105.50
2022-12-18T19:19:02.243Z,103106.41
2022-12-18T19:21:31.417Z,103101.84
2022-12-18T19:24:02.849Z,103093.31
2022-12-18T19:26:30.453Z,103098.28
2022-12-18T19:29:05.258Z,103080.38
2022-12-18T19:31:36.159Z,103094.69
2022-12-18T19:34:08.004Z,103082.84
2022-12-18T19:36:37.152Z,103090.31
2022-12-18T19:39:12.392Z,103095.69
2022-12-18T19:41:40.241Z,103098.28
2022-12-18T19:44:08.672Z,103096.31
2022-12-18T19:46:38.326Z,103098.63
2022-12-18T19:49:09.888Z,103114.50
2022-12-18T19:51:37.344Z,103110.88
2022-12-18T19:54:04.674Z,103109.19
2022-12-18T19:56:33.694Z,103118.25
2022-12-18T19:59:01.510Z,103127.44
2022-12-18T20:01:29.933Z,103128.31
2022-12-18T20:03:59.005Z,103135.09
2022-12-18T20:06:27.150Z,103132.84
2022-12-18T20:08:59.071Z,103139.09
2022-12-18T20:11:31.597Z,103145.13
2022-12-18T20:14:02.042Z,103144.00
2022-12-18T20:16:29.521Z,103149.88
2022-12-18T20:18:58.383Z,103159.72
2022-12-18T20:21:25.992Z,103155.38
2022-12-18T20:23:54.533Z,103147.28
2022-12-18T20:26:22.683Z,103141.13
2022-12-18T20:28:50.188Z,103149.03
2022-12-18T20:31:17.520Z,103158.63
2022-12-18T20:33:48.701Z,103161.88
2022-12-18T20:36:21.150Z,103159.75
2022-12-18T20:38:49.835Z,103172.00
2022-12-18T20:41:18.783Z,103170.00
2022-12-18T20:43:46.173Z,103165.41
2022-12-18T20:46:14.589Z,103176.09
2022-12-18T20:48:42.479Z,103185.34
2022-12-18T20:51:14.099Z,103180.03
2022-12-18T20:53:42.305Z,103176.84
2022-12-18T20:56:21.565Z,103179.13
2022-12-18T20:58:49.903Z,103177.13
2022-12-18T21:01:18.600Z,103166.00
2022-12-18T21:03:46.584Z,103160.00
2022-12-18T21:06:15.458Z,103149.97
2022-12-18T21:08:42.924Z,103161.47
2022-12-18T21:11:40.919Z,103162.22
2022-12-18T21:14:13.047Z,103168.13
2022-12-18T21:16:43.867Z,103166.25
2022-12-18T21:19:16.185Z,103153.75
2022-12-18T21:21:43.767Z,103150.91
2022-12-18T21:24:11.798Z,103141.78
2022-12-18T21:26:45.140Z,103134.97
2022-12-18T21:29:18.082Z,103136.59
2022-12-18T21:31:45.854Z,103135.97
2022-12-18T21:34:18.145Z,103137.72
2022-12-18T21:36:45.625Z,103142.50
2022-12-18T21:39:14.934Z,103139.00
2022-12-18T21:42:01.644Z,103138.56
2022-12-18T21:44:29.200Z,103133.28
2022-12-18T21:47:03.575Z,103132.50
2022-12-18T21:49:36.881Z,103145.84
2022-12-18T21:52:04.329Z,103137.50
2022-12-18T21:54:31.595Z,103154.00
2022-12-18T21:57:00.564Z,103153.50
2022-12-18T21:59:32.286Z,103159.16
2022-12-18T22:02:00.739Z,103166.00
2022-12-18T22:04:28.207Z,103176.13
2022-12-18T22:06:56.276Z,103171.28
2022-12-18T22:09:24.329Z,103171.97
2022-12-18T22:11:52.153Z,103161.91
2022-12-18T22:14:19.703Z,103157.88
2022-12-18T22:16:47.523Z,103163.13
2022-12-18T22:19:15.333Z,103162.94
2022-12-18T22:21:43.867Z,103161.59
2022-12-18T22:24:14.554Z,103157.63
2022-12-18T22:26:41.830Z,103163.25
2022-12-18T22:29:31.687Z,103162.94
2022-12-18T22:32:01.014Z,103168.09
2022-12-18T22:34:28.268Z,103176.13
2022-12-18T22:36:56.147Z,103183.84
2022-12-18T22:39:24.528Z,103198.00
2022-12-18T22:41:52.509Z,103202.53
2022-12-18T22:44:20.151Z,103202.03
2022-12-18T22:46:52.229Z,103200.38
2022-12-18T22:49:27.933Z,103201.91
2022-12-18T22:51:56.216Z,103199.97
2022-12-18T22:54:23.625Z,103206.75
2022-12-18T22:56:51.400Z,103199.38
2022-12-18T22:59:19.631Z,103196.56
2022-12-18T23:01:47.389Z,103191.13
2022-12-18T23:04:16.458Z,103197.06
2022-12-18T23:06:43.894Z,103195.31
2022-12-18T23:09:18.263Z,103194.34
2022-12-18T23:11:46.326Z,103199.00
2022-12-18T23:14:13.807Z,103205.47
2022-12-18T23:16:41.274Z,103203.53
2022-12-18T23:19:09.601Z,103183.41
2022-12-18T23:21:37.430Z,103191.44
2022-12-18T23:24:04.838Z,103180.41
2022-12-18T23:26:32.465Z,103193.72
2022-12-18T23:29:01.459Z,103197.47
2022-12-18T23:31:30.189Z,103190.66
2022-12-18T23:33:58.476Z,103189.56
2022-12-18T23:36:26.191Z,103185.16
2022-12-18T23:38:57.762Z,103184.66
2022-12-18T23:41:26.649Z,103188.47
2022-12-18T23:43:54.222Z,103183.41
2022-12-18T23:46:26.354Z,103191.34
2022-12-18T23:48:53.965Z,103187.91
2022-12-18T23:51:23.522Z,103199.47
2022-12-18T23:53:51.074Z,103193.75
2022-12-18T23:56:18.330Z,103195.63
2022-12-18T23:58:45.559Z,103194.66
